Time;durP1;ratioP1;P1;durP2;ratioP2;P2;SDS_P1;SDS_P2;PMS_P1;PMS_P2;Temp;Humidity;BMP_temperature;BMP_pressure;BME280_temperature;BME280_humidity;BME280_pressure;Samples;Min_cycle;Max_cycle;Signal;HPM_P1;HPM_P2
2024/04/06 00:06:24;;;;;;;0.00;0.00;;;;;;;14.16;75.41;100854.06;15607364;28;20116;-50
2024/04/06 00:14:01;;;;;;;0.52;0.52;;;;;;;13.60;77.52;100860.66;15616751;28;20403;-49
2024/04/06 00:21:35;;;;;;;0.00;0.00;;;;;;;13.67;77.31;100861.41;15599210;28;20053;-48
2024/04/06 00:29:16;;;;;;;0.00;0.00;;;;;;;13.86;76.40;100859.50;15584317;28;20490;-50
2024/04/06 00:36:54;;;;;;;0.00;0.00;;;;;;;13.95;75.90;100857.28;15613300;28;20045;-51
2024/04/06 00:44:34;;;;;;;1.17;1.08;;;;;;;13.91;75.77;100872.31;15577341;28;20388;-51
2024/04/06 00:52:08;;;;;;;0.00;0.00;;;;;;;13.79;75.80;100874.94;15615065;28;20128;-48
2024/04/06 00:59:45;;;;;;;0.30;0.30;;;;;;;13.64;76.13;100879.91;15614419;28;20042;-48
2024/04/06 01:07:20;;;;;;;0.00;0.00;;;;;;;13.66;76.36;100886.75;15595875;28;20030;-49
2024/04/06 01:14:59;;;;;;;0.75;0.70;;;;;;;13.54;76.59;100891.25;15592272;28;20132;-49
2024/04/06 01:22:33;;;;;;;0.00;0.00;;;;;;;13.36;77.79;100904.72;15613519;28;20175;-51
2024/04/06 01:30:10;;;;;;;0.15;0.13;;;;;;;13.44;77.08;100913.34;15612319;28;20133;-49
2024/04/06 01:37:44;;;;;;;0.00;0.00;;;;;;;13.46;77.36;100929.28;15610721;28;20038;-49
2024/04/06 01:45:22;;;;;;;0.25;0.25;;;;;;;13.70;75.97;100932.94;15596033;28;20136;-51
2024/04/06 01:52:56;;;;;;;0.00;0.00;;;;;;;13.66;76.59;100942.53;15611200;28;20517;-50
2024/04/06 02:00:32;;;;;;;0.00;0.00;;;;;;;13.53;76.47;100933.56;15593445;28;20054;-50
2024/04/06 02:08:10;;;;;;;0.10;0.10;;;;;;;13.60;76.02;100944.25;15607886;28;20057;-50
2024/04/06 02:15:46;;;;;;;0.00;0.00;;;;;;;13.57;76.48;100949.28;15610498;28;20479;-53
2024/04/06 02:23:20;;;;;;;0.00;0.00;;;;;;;13.35;77.13;100947.03;15576428;28;20376;-51
2024/04/06 02:30:55;;;;;;;0.20;0.20;;;;;;;13.41;76.42;100956.09;15603622;28;20037;-50
2024/04/06 02:38:29;;;;;;;0.00;0.00;;;;;;;13.44;76.07;100942.19;15609026;28;20064;-50
2024/04/06 02:46:05;;;;;;;0.00;0.00;;;;;;;13.35;76.08;100948.91;15591685;28;20049;-54
2024/04/06 02:53:40;;;;;;;0.00;0.00;;;;;;;13.37;75.95;100942.25;15608945;28;20042;-50
2024/04/06 03:01:15;;;;;;;0.00;0.00;;;;;;;13.29;76.16;100950.63;15605306;28;20046;-51
2024/04/06 03:08:49;;;;;;;0.10;0.10;;;;;;;13.02;76.85;100948.16;15586096;28;20041;-51
2024/04/06 03:16:26;;;;;;;0.00;0.00;;;;;;;13.13;76.61;100959.25;15591687;28;20045;-52
2024/04/06 03:24:00;;;;;;;0.00;0.00;;;;;;;13.07;76.52;100962.84;15590386;28;20537;-51
2024/04/06 03:31:37;;;;;;;0.00;0.00;;;;;;;13.06;76.39;100958.50;15586934;28;20048;-53
2024/04/06 03:39:12;;;;;;;0.30;0.30;;;;;;;13.04;76.54;100966.78;15606677;28;20114;-52
2024/04/06 03:46:48;;;;;;;0.00;0.00;;;;;;;12.98;76.20;100967.69;15594736;28;20053;-51
2024/04/06 03:54:22;;;;;;;0.22;0.22;;;;;;;12.83;76.65;100965.31;15597239;28;20294;-51
2024/04/06 04:02:01;;;;;;;0.30;0.15;;;;;;;12.81;75.76;100970.09;15600026;28;20041;-52
2024/04/06 04:09:36;;;;;;;0.00;0.00;;;;;;;12.66;76.32;100961.50;15617714;28;20061;-53
2024/04/06 04:17:11;;;;;;;0.00;0.00;;;;;;;12.46;77.77;100964.34;15595515;28;20076;-52
2024/04/06 04:24:46;;;;;;;2.35;1.00;;;;;;;12.39;78.67;100969.75;15614658;28;20132;-53
2024/04/06 04:32:22;;;;;;;0.38;0.28;;;;;;;12.45;77.76;100971.59;15615755;28;20041;-51
2024/04/06 04:39:56;;;;;;;0.00;0.00;;;;;;;12.36;77.19;100980.97;15597388;28;20076;-56
2024/04/06 04:47:31;;;;;;;2.47;0.70;;;;;;;12.28;79.11;100994.69;15596798;28;20065;-52
2024/04/06 04:55:07;;;;;;;2.63;0.47;;;;;;;12.38;78.07;100989.66;15578876;28;20152;-51
2024/04/06 05:02:47;;;;;;;0.40;0.40;;;;;;;12.33;79.86;100996.72;15591559;28;20042;-54
2024/04/06 05:10:28;;;;;;;0.10;0.10;;;;;;;12.46;79.27;101002.03;15605247;28;20088;-52
2024/04/06 05:18:04;;;;;;;0.08;0.08;;;;;;;13.51;76.03;101010.34;15610593;28;20063;-52
2024/04/06 05:25:38;;;;;;;0.93;0.22;;;;;;;13.18;75.69;101016.00;15589560;28;20091;-51
2024/04/06 05:33:15;;;;;;;0.00;0.00;;;;;;;12.63;79.07;101027.38;15611564;28;20061;-53
2024/04/06 05:40:52;;;;;;;0.20;0.20;;;;;;;13.40;76.63;101035.34;15593217;28;20041;-50
2024/04/06 05:48:32;;;;;;;0.03;0.03;;;;;;;13.47;76.10;101038.78;15611389;28;20065;-53
2024/04/06 05:56:08;;;;;;;0.00;0.00;;;;;;;13.59;76.70;101038.91;15611164;28;20057;-52
2024/04/06 06:03:44;;;;;;;0.00;0.00;;;;;;;13.72;75.65;101045.00;15610580;28;20064;-53
2024/04/06 06:11:18;;;;;;;0.00;0.00;;;;;;;13.56;76.50;101040.16;15610731;28;20041;-55
2024/04/06 06:18:53;;;;;;;0.00;0.00;;;;;;;13.91;76.00;101050.41;15608917;28;20477;-51
2024/04/06 06:26:27;;;;;;;0.10;0.10;;;;;;;14.21;74.94;101058.53;15609441;28;20453;-56
2024/04/06 06:34:03;;;;;;;0.00;0.00;;;;;;;14.38;74.21;101056.06;15589483;28;20038;-53
2024/04/06 06:41:36;;;;;;;0.38;0.38;;;;;;;14.58;73.75;101058.53;15592184;28;20037;-53
2024/04/06 06:49:12;;;;;;;0.20;0.20;;;;;;;15.11;72.22;101064.00;15591227;28;20041;-53
2024/04/06 06:56:46;;;;;;;0.10;0.10;;;;;;;16.43;68.82;101057.19;15602328;28;20042;-53
2024/04/06 07:04:22;;;;;;;0.13;0.13;;;;;;;16.32;66.76;101061.59;15595895;28;20061;-51
2024/04/06 07:12:00;;;;;;;1.75;0.43;;;;;;;17.04;67.53;101047.50;15591112;28;20033;-51
2024/04/06 07:19:36;;;;;;;0.00;0.00;;;;;;;19.19;58.81;101056.47;15610563;28;20030;-52
2024/04/06 07:27:11;;;;;;;0.00;0.00;;;;;;;21.00;53.78;101054.06;15620486;28;20052;-53
2024/04/06 07:34:46;;;;;;;0.00;0.00;;;;;;;19.87;55.10;101063.78;15617953;28;20079;-53
2024/04/06 07:42:20;;;;;;;0.00;0.00;;;;;;;21.74;50.97;101070.97;15584629;28;20034;-50
2024/04/06 07:49:56;;;;;;;0.10;0.10;;;;;;;23.17;48.92;101068.34;15601262;28;20050;-54
2024/04/06 07:57:30;;;;;;;2.63;0.45;;;;;;;23.32;46.98;101060.03;15593214;28;20061;-51
2024/04/06 08:05:08;;;;;;;0.08;0.08;;;;;;;23.93;47.53;101067.66;15618195;28;20457;-52
2024/04/06 08:12:43;;;;;;;0.00;0.00;;;;;;;23.28;48.22;101077.31;15617955;28;20033;-51
2024/04/06 08:20:20;;;;;;;0.00;0.00;;;;;;;22.34;49.94;101093.78;15615232;28;20041;-52
2024/04/06 08:27:53;;;;;;;0.50;0.20;;;;;;;23.49;46.97;101091.63;15613422;28;20407;-52
2024/04/06 08:35:37;;;;;;;0.00;0.00;;;;;;;22.80;49.63;101096.25;15597351;28;20072;-53
2024/04/06 08:43:13;;;;;;;0.10;0.05;;;;;;;23.14;49.87;101088.94;15611057;28;20038;-53
2024/04/06 08:50:52;;;;;;;0.10;0.10;;;;;;;23.47;46.88;101099.34;15614439;28;20073;-54
2024/04/06 08:58:26;;;;;;;0.30;0.10;;;;;;;24.19;44.97;101098.31;15606113;28;20041;-51
2024/04/06 09:06:03;;;;;;;0.47;0.25;;;;;;;23.28;47.53;101105.53;15612194;28;20092;-51
2024/04/06 09:13:40;;;;;;;0.00;0.00;;;;;;;21.34;51.27;101108.16;15616785;28;20041;-49
2024/04/06 09:21:18;;;;;;;0.00;0.00;;;;;;;20.38;53.99;101101.38;15613855;28;20502;-50
2024/04/06 09:28:54;;;;;;;0.00;0.00;;;;;;;20.98;52.85;101099.06;15599445;28;20037;-47
2024/04/06 09:36:35;;;;;;;0.55;0.22;;;;;;;21.61;51.86;101086.00;15609588;28;20035;-50
2024/04/06 09:44:10;;;;;;;0.27;0.10;;;;;;;22.51;49.87;101087.94;15610076;28;20041;-47
2024/04/06 09:51:45;;;;;;;0.00;0.00;;;;;;;23.90;47.46;101090.16;15608740;28;20045;-53
2024/04/06 09:59:22;;;;;;;1.55;0.77;;;;;;;24.78;43.48;101100.88;15596154;28;20120;-47
2024/04/06 10:06:58;;;;;;;0.10;0.10;;;;;;;24.81;43.39;101103.84;15577094;28;20071;-50
2024/04/06 10:14:31;;;;;;;0.00;0.00;;;;;;;22.19;47.66;101089.16;15615492;28;20045;-48
2024/04/06 10:22:07;;;;;;;0.00;0.00;;;;;;;23.72;44.41;101082.66;15597046;28;20033;-51
2024/04/06 10:29:42;;;;;;;0.00;0.00;;;;;;;25.25;42.11;101077.91;15608333;28;20038;-55
2024/04/06 10:37:24;;;;;;;;;;;;;;;26.01;38.85;101075.72;15613432;28;20494;-48
2024/04/06 10:45:00;;;;;;;0.00;0.00;;;;;;;25.25;40.72;101068.84;15613710;28;19967;-49
2024/04/06 10:52:36;;;;;;;0.00;0.00;;;;;;;26.02;39.80;101032.50;15595347;28;20037;-53
2024/04/06 11:00:10;;;;;;;0.00;0.00;;;;;;;24.13;42.36;101058.34;15592042;28;20033;-51
2024/04/06 11:07:46;;;;;;;0.25;0.22;;;;;;;24.47;43.07;101065.63;15595258;28;20041;-48
2024/04/06 11:15:23;;;;;;;0.10;0.10;;;;;;;24.11;42.34;101068.81;15611138;28;20092;-48
2024/04/06 11:22:58;;;;;;;0.28;0.10;;;;;;;25.40;39.53;101063.91;15612030;28;20042;-53
2024/04/06 11:30:33;;;;;;;0.22;0.13;;;;;;;25.41;39.93;101051.81;15590340;28;20068;-48
2024/04/06 11:38:08;;;;;;;1.17;0.47;;;;;;;25.64;39.44;101051.94;15604277;28;20402;-48
2024/04/06 11:45:42;;;;;;;1.08;0.45;;;;;;;26.13;37.87;101053.19;15612699;28;20376;-52
2024/04/06 11:53:17;;;;;;;0.00;0.00;;;;;;;26.34;37.58;101062.63;15610186;28;20057;-52
2024/04/06 12:00:51;;;;;;;0.00;0.00;;;;;;;25.48;40.09;101072.59;15595109;28;20037;-48
2024/04/06 12:08:26;;;;;;;0.00;0.00;;;;;;;26.81;37.55;101079.78;15626388;28;20394;-53
2024/04/06 12:16:00;;;;;;;0.05;0.00;;;;;;;27.24;36.37;101062.00;15622298;28;20146;-48
2024/04/06 12:23:35;;;;;;;0.00;0.00;;;;;;;27.05;35.67;101051.13;15622103;28;20124;-48
2024/04/06 12:31:10;;;;;;;0.00;0.00;;;;;;;26.86;35.94;101054.06;15621694;28;20037;-49
2024/04/06 12:38:45;;;;;;;0.00;0.00;;;;;;;27.64;35.56;101043.53;15601812;28;20364;-50
2024/04/06 12:46:20;;;;;;;0.40;0.20;;;;;;;27.33;34.98;101060.09;15621792;28;20120;-50
2024/04/06 12:53:56;;;;;;;0.55;0.35;;;;;;;28.23;34.43;101039.38;15600279;28;20099;-50
2024/04/06 13:01:29;;;;;;;0.00;0.00;;;;;;;27.87;34.80;101058.91;15619651;28;20123;-50
2024/04/06 13:09:07;;;;;;;0.00;0.00;;;;;;;26.56;35.49;101041.81;15603077;28;20041;-48
2024/04/06 13:16:41;;;;;;;0.17;0.10;;;;;;;26.53;36.28;101032.25;15601141;28;20498;-49
2024/04/06 13:24:20;;;;;;;4.53;0.93;;;;;;;28.22;33.32;101020.38;15600706;28;20259;-49
2024/04/06 13:31:54;;;;;;;0.00;0.00;;;;;;;27.49;35.12;101011.69;15607173;28;20038;-50
2024/04/06 13:39:29;;;;;;;0.57;0.35;;;;;;;27.40;34.38;101008.88;15593566;28;20104;-51
2024/04/06 13:47:03;;;;;;;0.08;0.08;;;;;;;27.59;35.32;101019.69;15612086;28;20045;-48
2024/04/06 13:54:40;;;;;;;0.00;0.00;;;;;;;27.68;34.80;101011.44;15607701;28;20122;-47
2024/04/06 14:02:15;;;;;;;0.00;0.00;;;;;;;26.11;37.22;100987.50;15611874;28;20041;-50
2024/04/06 14:09:50;;;;;;;0.00;0.00;;;;;;;25.20;39.23;100998.34;15608423;28;20041;-52
2024/04/06 14:17:24;;;;;;;0.10;0.10;;;;;;;24.89;38.97;100993.31;15606039;28;20112;-48
2024/04/06 14:24:59;;;;;;;0.32;0.32;;;;;;;24.12;40.66;100981.84;15596029;28;20491;-47
2024/04/06 14:32:36;;;;;;;0.00;0.00;;;;;;;24.56;40.35;100973.28;15602831;28;20038;-49
2024/04/06 14:40:12;;;;;;;0.00;0.00;;;;;;;24.88;40.13;100960.69;15588049;28;20128;-58
2024/04/06 14:47:46;;;;;;;0.00;0.00;;;;;;;24.34;40.58;100964.78;15605351;28;20111;-49
2024/04/06 14:55:22;;;;;;;0.00;0.00;;;;;;;24.61;39.80;100956.72;15610767;28;20148;-48
2024/04/06 15:02:58;;;;;;;0.00;0.00;;;;;;;24.28;41.01;100953.09;15612208;28;20034;-49
2024/04/06 15:10:36;;;;;;;0.00;0.00;;;;;;;24.41;41.48;100946.88;15604425;28;20448;-59
2024/04/06 15:18:10;;;;;;;0.00;0.00;;;;;;;23.82;42.04;100945.50;15567865;28;20055;-49
2024/04/06 15:25:46;;;;;;;0.17;0.10;;;;;;;23.96;42.47;100918.16;15602137;28;20088;-50
2024/04/06 15:33:20;;;;;;;0.00;0.00;;;;;;;24.14;43.50;100927.50;15605678;28;20388;-52
2024/04/06 15:40:56;;;;;;;0.00;0.00;;;;;;;23.67;43.25;100915.53;15606967;28;20061;-51
2024/04/06 15:48:30;;;;;;;0.00;0.00;;;;;;;24.65;42.81;100927.56;15620060;28;20050;-54
2024/04/06 15:56:07;;;;;;;0.93;0.20;;;;;;;24.10;43.61;100919.06;15617030;28;20045;-52
2024/04/06 16:03:41;;;;;;;0.00;0.00;;;;;;;23.90;43.97;100922.09;15618834;28;20037;-50
2024/04/06 16:11:18;;;;;;;0.30;0.10;;;;;;;23.80;45.44;100916.75;15615374;28;20109;-50
2024/04/06 16:18:52;;;;;;;0.00;0.00;;;;;;;24.43;43.82;100919.13;15609247;28;20042;-55
2024/04/06 16:26:27;;;;;;;0.10;0.00;;;;;;;24.23;45.06;100916.69;15598688;28;20045;-56
2024/04/06 16:34:01;;;;;;;3.67;2.38;;;;;;;23.86;44.95;100910.91;15595584;28;20132;-52
